createdAt,value
2022-10-13T00:00:11.079Z,100356.39
2022-10-13T00:01:20.106Z,100355.07
2022-10-13T00:02:11.067Z,100357.21
2022-10-13T00:03:11.072Z,100353.32
2022-10-13T00:04:11.065Z,100354.03
2022-10-13T00:05:11.065Z,100351.20
2022-10-13T00:06:11.084Z,100350.30
2022-10-13T00:07:11.062Z,100355.82
2022-10-13T00:08:11.066Z,100354.67
2022-10-13T00:09:11.071Z,100358.27
2022-10-13T00:10:11.066Z,100349.97
2022-10-13T00:11:14.064Z,100353.60
2022-10-13T00:12:11.063Z,100350.85
2022-10-13T00:13:11.065Z,100352.64
2022-10-13T00:14:11.065Z,100347.81
2022-10-13T00:15:11.065Z,100349.95
2022-10-13T00:16:11.066Z,100349.35
2022-10-13T00:17:11.063Z,100349.40
2022-10-13T00:18:11.069Z,100351.55
2022-10-13T00:19:14.899Z,100350.89
2022-10-13T00:20:11.064Z,100353.80
2022-10-13T00:21:11.061Z,100355.28
2022-10-13T00:22:11.068Z,100356.27
2022-10-13T00:23:11.061Z,100358.30
2022-10-13T00:24:12.057Z,100359.00
2022-10-13T00:25:11.063Z,100356.70
2022-10-13T00:26:11.061Z,100359.37
2022-10-13T00:27:11.057Z,100357.80
2022-10-13T00:28:11.274Z,100356.73
2022-10-13T00:29:11.061Z,100355.36
2022-10-13T00:30:11.061Z,100353.88
2022-10-13T00:31:20.064Z,100352.06
2022-10-13T00:32:11.070Z,100355.05
2022-10-13T00:33:11.064Z,100354.99
2022-10-13T00:34:11.057Z,100357.45
2022-10-13T00:35:11.066Z,100354.20
2022-10-13T00:36:11.063Z,100353.89
2022-10-13T00:37:11.058Z,100356.39
2022-10-13T00:38:11.064Z,100353.73
2022-10-13T00:39:11.090Z,100351.81
2022-10-13T00:40:11.060Z,100350.22
2022-10-13T00:41:11.101Z,100349.39
2022-10-13T00:42:12.097Z,100349.58
2022-10-13T00:43:17.062Z,100347.17
2022-10-13T00:44:19.062Z,100347.35
2022-10-13T00:45:19.069Z,100347.55
2022-10-13T00:46:11.064Z,100345.76
2022-10-13T00:47:11.061Z,100344.28
2022-10-13T00:48:11.064Z,100342.72
2022-10-13T00:49:12.070Z,100338.57
2022-10-13T00:50:14.061Z,100337.83
2022-10-13T00:51:11.066Z,100339.42
2022-10-13T00:52:11.067Z,100334.05
2022-10-13T00:53:11.065Z,100339.09
2022-10-13T00:54:11.062Z,100333.00
2022-10-13T00:55:11.063Z,100330.58
2022-10-13T00:56:11.066Z,100330.66
2022-10-13T00:57:11.064Z,100327.12
2022-10-13T00:58:12.063Z,100326.57
2022-10-13T00:59:21.066Z,100327.53
2022-10-13T01:00:11.064Z,100328.88
2022-10-13T01:01:11.090Z,100324.82
2022-10-13T01:02:11.073Z,100319.02
2022-10-13T01:03:11.066Z,100314.38
2022-10-13T01:04:11.062Z,100315.23
2022-10-13T01:05:11.065Z,100312.57
2022-10-13T01:06:11.066Z,100313.34
2022-10-13T01:07:11.065Z,100310.21
2022-10-13T01:08:11.065Z,100307.57
2022-10-13T01:09:11.067Z,100305.43
2022-10-13T01:10:11.071Z,100307.21
2022-10-13T01:11:19.066Z,100306.83
2022-10-13T01:12:19.435Z,100308.39
2022-10-13T01:13:18.067Z,100306.41
2022-10-13T01:14:19.068Z,100303.99
2022-10-13T01:15:19.062Z,100306.25
2022-10-13T01:16:19.066Z,100307.12
2022-10-13T01:17:19.073Z,100305.92
2022-10-13T01:18:19.067Z,100309.71
2022-10-13T01:19:19.066Z,100308.36
2022-10-13T01:20:19.069Z,100305.88
2022-10-13T01:21:19.063Z,100303.69
2022-10-13T01:22:19.484Z,100301.53
2022-10-13T01:23:21.058Z,100301.69
2022-10-13T01:24:23.061Z,100300.48
2022-10-13T01:25:21.067Z,100297.60
2022-10-13T01:26:21.059Z,100298.84
2022-10-13T01:27:18.086Z,100297.41
2022-10-13T01:28:19.091Z,100294.94
2022-10-13T01:29:19.060Z,100297.30
2022-10-13T01:30:15.058Z,100293.73
2022-10-13T01:31:19.063Z,100295.11
2022-10-13T01:32:19.402Z,100292.74
2022-10-13T01:33:19.061Z,100292.93
2022-10-13T01:34:19.060Z,100294.47
2022-10-13T01:35:16.057Z,100295.21
2022-10-13T01:36:20.060Z,100292.69
2022-10-13T01:37:19.070Z,100294.00
2022-10-13T01:38:18.086Z,100296.50
2022-10-13T01:39:19.059Z,100296.77
2022-10-13T01:40:21.060Z,100296.59
2022-10-13T01:41:21.061Z,100293.07
2022-10-13T01:42:21.370Z,100295.05
2022-10-13T01:43:18.077Z,100291.04
2022-10-13T01:44:19.060Z,100294.61
2022-10-13T01:45:12.072Z,100296.11
2022-10-13T01:46:16.066Z,100296.11
2022-10-13T01:47:11.071Z,100302.45
2022-10-13T01:48:11.070Z,100302.56
2022-10-13T01:49:14.065Z,100306.89
2022-10-13T01:50:11.066Z,100302.61
2022-10-13T01:51:17.061Z,100303.49
2022-10-13T01:52:12.063Z,100304.54
2022-10-13T01:53:11.063Z,100302.01
2022-10-13T01:54:11.066Z,100303.21
2022-10-13T01:55:11.068Z,100305.21
2022-10-13T01:56:11.069Z,100303.35
2022-10-13T01:57:19.066Z,100300.99
2022-10-13T01:58:12.065Z,100302.33
2022-10-13T01:59:14.064Z,100300.88
2022-10-13T02:00:14.071Z,100301.59
2022-10-13T02:01:19.066Z,100293.58
2022-10-13T02:02:21.487Z,100296.76
2022-10-13T02:03:20.064Z,100299.75
2022-10-13T02:04:19.067Z,100297.28
2022-10-13T02:05:19.074Z,100298.70
2022-10-13T02:06:19.066Z,100301.18
2022-10-13T02:07:19.064Z,100300.07
2022-10-13T02:08:21.062Z,100300.62
2022-10-13T02:09:21.066Z,100301.56
2022-10-13T02:10:19.069Z,100300.24
2022-10-13T02:11:18.096Z,100301.15
2022-10-13T02:12:20.658Z,100303.18
2022-10-13T02:13:11.064Z,100298.41
2022-10-13T02:14:23.068Z,100300.36
2022-10-13T02:15:16.066Z,100298.44
2022-10-13T02:16:11.074Z,100299.10
2022-10-13T02:17:11.067Z,100295.48
2022-10-13T02:18:11.067Z,100292.73
2022-10-13T02:19:12.076Z,100289.38
2022-10-13T02:20:11.067Z,100293.66
2022-10-13T02:21:11.062Z,100287.63
2022-10-13T02:22:11.065Z,100288.51
2022-10-13T02:23:14.060Z,100291.99
2022-10-13T02:24:11.059Z,100291.66
2022-10-13T02:25:11.057Z,100289.85
2022-10-13T02:26:11.060Z,100290.78
2022-10-13T02:27:11.063Z,100289.74
2022-10-13T02:28:11.244Z,100286.00
2022-10-13T02:29:11.069Z,100285.18
2022-10-13T02:30:15.057Z,100283.48
2022-10-13T02:31:11.060Z,100281.72
2022-10-13T02:32:11.058Z,100284.03
2022-10-13T02:33:11.060Z,100284.34
2022-10-13T02:34:11.059Z,100287.41
2022-10-13T02:35:11.059Z,100284.74
2022-10-13T02:36:11.061Z,100284.06
2022-10-13T02:37:11.059Z,100284.17
2022-10-13T02:38:11.059Z,100285.65
2022-10-13T02:39:11.069Z,100284.94
2022-10-13T02:40:11.058Z,100282.98
2022-10-13T02:41:11.062Z,100284.11
2022-10-13T02:42:11.074Z,100282.02
2022-10-13T02:43:11.060Z,100288.06
2022-10-13T02:44:11.063Z,100286.05
2022-10-13T02:45:11.067Z,100285.99
2022-10-13T02:46:11.062Z,100284.83
2022-10-13T02:47:11.057Z,100286.25
2022-10-13T02:48:11.060Z,100286.04
2022-10-13T02:49:11.071Z,100284.74
2022-10-13T02:50:11.061Z,100283.00
2022-10-13T02:51:11.062Z,100284.91
2022-10-13T02:52:11.063Z,100278.65
2022-10-13T02:53:11.059Z,100281.76
2022-10-13T02:54:11.063Z,100274.51
2022-10-13T02:55:11.070Z,100275.43
2022-10-13T02:56:11.062Z,100276.97
2022-10-13T02:57:11.059Z,100278.03
2022-10-13T02:58:11.065Z,100272.25
2022-10-13T02:59:11.062Z,100271.10
2022-10-13T03:00:11.062Z,100275.05
2022-10-13T03:01:14.119Z,100272.69
2022-10-13T03:02:11.068Z,100272.47
2022-10-13T03:03:11.065Z,100272.04
2022-10-13T03:04:11.063Z,100271.55
2022-10-13T03:05:11.065Z,100269.54
2022-10-13T03:06:11.062Z,100262.68
2022-10-13T03:07:11.062Z,100263.43
2022-10-13T03:08:11.067Z,100262.78
2022-10-13T03:09:11.064Z,100259.82
2022-10-13T03:10:11.066Z,100258.59
2022-10-13T03:11:11.072Z,100266.32
2022-10-13T03:12:11.062Z,100264.77
2022-10-13T03:13:11.066Z,100267.29
2022-10-13T03:14:11.072Z,100262.57
2022-10-13T03:15:11.065Z,100265.68
2022-10-13T03:16:11.066Z,100262.60
2022-10-13T03:17:13.280Z,100263.54
2022-10-13T03:18:11.066Z,100259.57
2022-10-13T03:19:11.067Z,100257.32
2022-10-13T03:20:11.067Z,100257.19
2022-10-13T03:21:11.058Z,100256.92
2022-10-13T03:22:11.055Z,100254.94
2022-10-13T03:23:12.060Z,100258.95
2022-10-13T03:24:11.059Z,100258.98
2022-10-13T03:25:11.054Z,100256.51
2022-10-13T03:26:11.061Z,100258.43
2022-10-13T03:27:11.058Z,100259.42
2022-10-13T03:28:11.062Z,100259.91
2022-10-13T03:29:16.066Z,100258.07
2022-10-13T03:30:11.061Z,100261.92
2022-10-13T03:31:12.057Z,100259.83
2022-10-13T03:32:11.072Z,100260.21
2022-10-13T03:33:11.073Z,100260.27
2022-10-13T03:34:13.059Z,100259.99
2022-10-13T03:35:11.059Z,100264.61
2022-10-13T03:36:11.065Z,100260.05
2022-10-13T03:37:11.060Z,100257.85
2022-10-13T03:38:11.065Z,100258.79
2022-10-13T03:39:11.060Z,100256.27
2022-10-13T03:40:11.067Z,100256.89
2022-10-13T03:41:14.059Z,100257.47
2022-10-13T03:42:11.062Z,100252.26
2022-10-13T03:43:11.063Z,100253.79
2022-10-13T03:44:12.065Z,100253.49
2022-10-13T03:45:11.062Z,100253.71
2022-10-13T03:46:13.063Z,100251.46
2022-10-13T03:47:11.070Z,100252.99
2022-10-13T03:48:11.059Z,100252.71
2022-10-13T03:49:11.058Z,100249.48
2022-10-13T03:50:11.061Z,100248.28
2022-10-13T03:51:11.063Z,100249.13
2022-10-13T03:52:11.059Z,100245.78
2022-10-13T03:53:11.064Z,100247.10
2022-10-13T03:54:12.063Z,100247.15
2022-10-13T03:55:11.061Z,100249.71
2022-10-13T03:56:15.065Z,100249.54
2022-10-13T03:57:11.070Z,100248.79
2022-10-13T03:58:11.063Z,100249.44
2022-10-13T03:59:12.066Z,100250.93
2022-10-13T04:00:14.067Z,100248.54
2022-10-13T04:01:11.061Z,100247.88
2022-10-13T04:02:11.066Z,100250.36
2022-10-13T04:03:11.072Z,100245.83
2022-10-13T04:04:12.064Z,100244.81
2022-10-13T04:05:11.062Z,100244.46
2022-10-13T04:06:11.065Z,100242.26
2022-10-13T04:07:11.067Z,100240.67
2022-10-13T04:08:11.063Z,100237.54
2022-10-13T04:09:11.064Z,100236.01
2022-10-13T04:10:11.661Z,100230.43
2022-10-13T04:11:12.079Z,100228.35
2022-10-13T04:12:11.064Z,100230.36
2022-10-13T04:13:11.072Z,100227.63
2022-10-13T04:14:11.062Z,100227.03
2022-10-13T04:15:11.067Z,100228.59
2022-10-13T04:16:21.073Z,100230.79
2022-10-13T04:17:11.066Z,100232.82
2022-10-13T04:18:11.064Z,100229.04
2022-10-13T04:19:11.065Z,100229.21
2022-10-13T04:20:11.073Z,100226.43
2022-10-13T04:21:11.062Z,100223.11
2022-10-13T04:22:11.059Z,100221.96
2022-10-13T04:23:11.066Z,100222.72
2022-10-13T04:24:12.057Z,100221.90
2022-10-13T04:25:11.059Z,100225.12
2022-10-13T04:26:15.068Z,100225.45
2022-10-13T04:27:11.059Z,100225.47
2022-10-13T04:28:11.065Z,100221.65
2022-10-13T04:29:11.058Z,100224.12
2022-10-13T04:30:13.480Z,100226.26
2022-10-13T04:31:11.057Z,100225.07
2022-10-13T04:32:11.059Z,100225.40
2022-10-13T04:33:11.068Z,100225.75
2022-10-13T04:34:11.059Z,100226.95
2022-10-13T04:35:11.061Z,100228.93
2022-10-13T04:36:11.065Z,100228.71
2022-10-13T04:37:11.060Z,100230.17
2022-10-13T04:38:11.060Z,100232.64
2022-10-13T04:39:11.070Z,100231.43
2022-10-13T04:40:11.058Z,100233.19
2022-10-13T04:41:11.065Z,100232.64
2022-10-13T04:42:11.069Z,100231.10
2022-10-13T04:43:11.061Z,100234.07
2022-10-13T04:44:11.057Z,100234.61
2022-10-13T04:45:11.060Z,100234.03
2022-10-13T04:46:15.068Z,100235.78
2022-10-13T04:47:11.060Z,100233.39
2022-10-13T04:48:11.066Z,100233.86
2022-10-13T04:49:11.068Z,100232.27
2022-10-13T04:50:11.059Z,100233.38
2022-10-13T04:51:11.064Z,100230.61
2022-10-13T04:52:11.069Z,100230.71
2022-10-13T04:53:14.204Z,100232.89
2022-10-13T04:54:13.893Z,100233.70
2022-10-13T04:55:11.064Z,100231.57
2022-10-13T04:56:12.063Z,100231.14
2022-10-13T04:57:11.061Z,100232.07
2022-10-13T04:58:11.063Z,100232.93
2022-10-13T04:59:11.066Z,100230.13
2022-10-13T05:00:11.061Z,100232.98
2022-10-13T05:01:15.447Z,100230.35
2022-10-13T05:02:13.128Z,100230.92
2022-10-13T05:03:11.064Z,100228.07
2022-10-13T05:04:11.063Z,100226.73
2022-10-13T05:05:11.064Z,100226.73
2022-10-13T05:06:15.065Z,100227.87
2022-10-13T05:07:18.109Z,100229.28
2022-10-13T05:08:13.085Z,100226.37
2022-10-13T05:09:14.073Z,100228.65
2022-10-13T05:10:11.069Z,100227.72
2022-10-13T05:11:11.067Z,100229.75
2022-10-13T05:12:11.073Z,100233.39
2022-10-13T05:13:11.066Z,100227.08
2022-10-13T05:14:11.061Z,100227.82
2022-10-13T05:15:11.069Z,100236.16
2022-10-13T05:16:14.066Z,100230.93
2022-10-13T05:17:11.065Z,100235.65
2022-10-13T05:18:11.065Z,100242.23
2022-10-13T05:19:11.067Z,100242.54
2022-10-13T05:20:11.063Z,100242.21
2022-10-13T05:21:11.060Z,100245.12
2022-10-13T05:22:11.068Z,100245.29
2022-10-13T05:23:11.056Z,100249.12
2022-10-13T05:24:11.059Z,100252.98
2022-10-13T05:25:11.069Z,100252.05
2022-10-13T05:26:12.059Z,100253.99
2022-10-13T05:27:14.058Z,100254.87
2022-10-13T05:28:11.068Z,100258.53
2022-10-13T05:29:11.059Z,100257.98
2022-10-13T05:30:11.058Z,100256.46
2022-10-13T05:31:15.067Z,100257.89
2022-10-13T05:32:11.061Z,100259.02
2022-10-13T05:33:11.059Z,100261.76
2022-10-13T05:34:11.061Z,100261.87
2022-10-13T05:35:11.067Z,100261.03
2022-10-13T05:36:11.058Z,100265.36
2022-10-13T05:37:11.064Z,100265.53
2022-10-13T05:38:11.068Z,100267.58
2022-10-13T05:39:11.061Z,100270.43
2022-10-13T05:40:11.060Z,100269.55
2022-10-13T05:41:11.075Z,100271.47
2022-10-13T05:42:11.061Z,100273.64
2022-10-13T05:43:11.060Z,100272.77
2022-10-13T05:44:11.061Z,100270.57
2022-10-13T05:45:11.068Z,100267.90
2022-10-13T05:46:11.063Z,100263.68
2022-10-13T05:47:11.058Z,100264.67
2022-10-13T05:48:11.064Z,100265.75
2022-10-13T05:49:11.063Z,100265.66
2022-10-13T05:50:11.062Z,100266.26
2022-10-13T05:51:15.065Z,100269.61
2022-10-13T05:52:11.070Z,100268.03
2022-10-13T05:54:25.110Z,100270.74
2022-10-13T05:54:57.285Z,100267.52
2022-10-13T05:55:11.073Z,100269.61
2022-10-13T05:56:15.064Z,100268.76
2022-10-13T05:57:17.078Z,100265.09
2022-10-13T05:58:11.062Z,100258.61
2022-10-13T05:59:12.062Z,100258.07
2022-10-13T06:00:14.064Z,100255.36
2022-10-13T06:01:13.062Z,100255.69
2022-10-13T06:02:12.128Z,100253.82
2022-10-13T06:03:15.072Z,100249.21
2022-10-13T06:04:17.070Z,100248.25
2022-10-13T06:05:15.070Z,100244.35
2022-10-13T06:06:11.063Z,100244.02
2022-10-13T06:07:11.071Z,100242.84
2022-10-13T06:08:11.065Z,100231.43
2022-10-13T06:09:11.059Z,100235.31
2022-10-13T06:10:11.070Z,100231.03
2022-10-13T06:11:11.065Z,100229.24
2022-10-13T06:12:11.069Z,100227.89
2022-10-13T06:13:11.063Z,100226.90
2022-10-13T06:14:11.066Z,100227.06
2022-10-13T06:15:11.063Z,100226.18
2022-10-13T06:16:11.072Z,100220.12
2022-10-13T06:17:11.068Z,100220.99
2022-10-13T06:18:11.066Z,100218.31
2022-10-13T06:19:11.066Z,100214.21
2022-10-13T06:20:11.072Z,100213.34
2022-10-13T06:21:11.057Z,100212.40
2022-10-13T06:22:11.061Z,100212.52
2022-10-13T06:23:11.064Z,100212.18
2022-10-13T06:24:11.063Z,100209.19
2022-10-13T06:25:11.056Z,100208.18
2022-10-13T06:26:11.062Z,100210.65
2022-10-13T06:27:11.066Z,100208.02
2022-10-13T06:28:11.055Z,100208.13
2022-10-13T06:29:11.105Z,100206.45
2022-10-13T06:30:11.059Z,100204.30
2022-10-13T06:31:11.057Z,100207.43
2022-10-13T06:32:11.059Z,100207.87
2022-10-13T06:33:11.067Z,100207.62
2022-10-13T06:34:11.058Z,100210.14
2022-10-13T06:35:11.064Z,100209.86
2022-10-13T06:36:11.069Z,100210.12
2022-10-13T06:37:11.062Z,100209.81
2022-10-13T06:38:11.056Z,100211.49
2022-10-13T06:39:11.061Z,100210.94
2022-10-13T06:40:11.063Z,100213.04
2022-10-13T06:41:11.056Z,100212.09
2022-10-13T06:42:11.062Z,100213.30
2022-10-13T06:43:11.062Z,100213.37
2022-10-13T06:44:11.058Z,100216.73
2022-10-13T06:45:11.060Z,100218.38
2022-10-13T06:46:11.067Z,100218.12
2022-10-13T06:47:11.061Z,100217.89
2022-10-13T06:48:11.057Z,100217.25
2022-10-13T06:49:11.064Z,100216.59
2022-10-13T06:50:11.061Z,100216.50
2022-10-13T06:51:11.058Z,100217.81
2022-10-13T06:52:11.060Z,100219.75
2022-10-13T06:53:11.062Z,100218.43
2022-10-13T06:54:11.060Z,100220.97
2022-10-13T06:55:11.064Z,100224.97
2022-10-13T06:56:11.079Z,100227.11
2022-10-13T06:57:11.092Z,100228.68
2022-10-13T06:58:11.095Z,100226.09
2022-10-13T06:59:11.069Z,100228.45
2022-10-13T07:00:11.064Z,100231.14
2022-10-13T07:01:13.059Z,100229.69
2022-10-13T07:02:11.062Z,100229.57
2022-10-13T07:03:11.064Z,100232.37
2022-10-13T07:04:11.066Z,100230.34
2022-10-13T07:05:11.064Z,100233.61
2022-10-13T07:06:11.070Z,100232.18
2022-10-13T07:07:11.063Z,100233.52
2022-10-13T07:08:11.062Z,100233.90
2022-10-13T07:09:11.062Z,100236.64
2022-10-13T07:10:11.066Z,100236.84
2022-10-13T07:11:15.417Z,100238.96
2022-10-13T07:12:11.063Z,100238.30
2022-10-13T07:13:11.167Z,100240.68
2022-10-13T07:14:11.066Z,100240.66
2022-10-13T07:15:11.061Z,100235.95
2022-10-13T07:16:11.065Z,100235.51
2022-10-13T07:17:11.064Z,100233.31
2022-10-13T07:18:11.064Z,100233.42
2022-10-13T07:19:15.067Z,100232.69
2022-10-13T07:20:11.073Z,100234.25
2022-10-13T07:21:11.055Z,100237.00
2022-10-13T07:22:11.062Z,100235.51
2022-10-13T07:23:11.065Z,100231.81
2022-10-13T07:24:11.060Z,100231.59
2022-10-13T07:25:11.054Z,100229.00
2022-10-13T07:26:14.068Z,100227.94
2022-10-13T07:27:11.066Z,100226.84
2022-10-13T07:28:11.058Z,100224.38
2022-10-13T07:29:11.059Z,100219.75
2022-10-13T07:30:11.066Z,100220.62
2022-10-13T07:31:11.056Z,100217.34
2022-10-13T07:32:11.060Z,100217.39
2022-10-13T07:33:11.061Z,100216.15
2022-10-13T07:34:11.059Z,100217.08
2022-10-13T07:35:11.055Z,100220.88
2022-10-13T07:36:11.064Z,100219.57
2022-10-13T07:37:11.059Z,100224.65
2022-10-13T07:38:11.066Z,100223.88
2022-10-13T07:39:11.061Z,100225.07
2022-10-13T07:40:11.060Z,100222.03
2022-10-13T07:41:11.059Z,100219.32
2022-10-13T07:42:11.059Z,100216.71
2022-10-13T07:43:11.061Z,100217.33
2022-10-13T07:44:11.060Z,100214.29
2022-10-13T07:45:11.056Z,100214.62
2022-10-13T07:46:11.063Z,100213.96
2022-10-13T07:47:11.070Z,100214.79
2022-10-13T07:48:11.093Z,100214.32
2022-10-13T07:49:13.745Z,100216.99
2022-10-13T07:50:13.393Z,100221.38
2022-10-13T07:51:12.063Z,100218.60
2022-10-13T07:52:11.062Z,100220.12
2022-10-13T07:53:11.067Z,100219.76
2022-10-13T07:54:11.063Z,100220.23
2022-10-13T07:55:11.056Z,100221.27
2022-10-13T07:56:12.060Z,100216.04
2022-10-13T07:57:11.063Z,100216.96
2022-10-13T07:58:11.061Z,100220.49
2022-10-13T07:59:11.064Z,100222.08
2022-10-13T08:00:11.069Z,100222.52
2022-10-13T08:01:11.070Z,100226.37
2022-10-13T08:02:11.059Z,100228.11
2022-10-13T08:03:11.064Z,100232.12
2022-10-13T08:04:11.062Z,100229.68
2022-10-13T08:05:11.062Z,100234.02
2022-10-13T08:06:11.065Z,100227.75
2022-10-13T08:07:11.064Z,100222.59
2022-10-13T08:08:11.063Z,100218.33
2022-10-13T08:09:11.062Z,100213.88
2022-10-13T08:10:11.065Z,100214.11
2022-10-13T08:11:13.451Z,100214.41
2022-10-13T08:12:13.137Z,100213.99
2022-10-13T08:13:11.071Z,100213.94
2022-10-13T08:14:11.065Z,100217.08
2022-10-13T08:15:11.060Z,100216.86
2022-10-13T08:16:11.067Z,100215.52
2022-10-13T08:17:11.070Z,100215.35
2022-10-13T08:18:11.059Z,100215.55
2022-10-13T08:19:11.063Z,100214.04
2022-10-13T08:20:11.064Z,100217.38
2022-10-13T08:21:39.190Z,100218.22
2022-10-13T08:22:13.079Z,100217.04
2022-10-13T08:23:11.066Z,100223.00
2022-10-13T08:24:14.060Z,100221.35
2022-10-13T08:25:11.061Z,100224.43
2022-10-13T08:26:15.067Z,100227.20
2022-10-13T08:27:13.061Z,100227.03
2022-10-13T08:28:19.142Z,100227.94
2022-10-13T08:29:22.332Z,100228.27
2022-10-13T08:30:13.293Z,100231.97
2022-10-13T08:31:11.170Z,100228.51
2022-10-13T08:32:11.058Z,100229.97
2022-10-13T08:33:11.057Z,100232.25
2022-10-13T08:34:11.063Z,100233.43
2022-10-13T08:35:11.059Z,100232.33
2022-10-13T08:36:11.059Z,100231.70
2022-10-13T08:37:15.061Z,100230.49
2022-10-13T08:38:11.057Z,100229.69
2022-10-13T08:39:11.061Z,100230.11
2022-10-13T08:40:16.068Z,100229.42
2022-10-13T08:41:19.106Z,100226.92
2022-10-13T08:42:15.058Z,100228.29
2022-10-13T08:43:15.059Z,100228.41
2022-10-13T08:45:10.411Z,100233.48
2022-10-13T08:45:41.305Z,100232.57
2022-10-13T08:46:13.070Z,100235.54
2022-10-13T08:47:18.056Z,100233.65
2022-10-13T08:48:19.064Z,100234.39
2022-10-13T08:49:11.062Z,100237.27
2022-10-13T08:50:19.064Z,100238.95
2022-10-13T08:51:12.059Z,100238.73
2022-10-13T08:52:21.247Z,100240.21
2022-10-13T08:53:21.068Z,100241.14
2022-10-13T08:54:13.094Z,100240.72
2022-10-13T08:55:16.061Z,100241.50
2022-10-13T08:56:17.065Z,100238.11
2022-10-13T08:57:11.065Z,100238.66
2022-10-13T08:58:21.061Z,100238.79
2022-10-13T08:59:15.064Z,100234.36
2022-10-13T09:00:12.061Z,100231.91
2022-10-13T09:01:17.198Z,100224.81
2022-10-13T09:02:21.064Z,100222.49
2022-10-13T09:03:19.065Z,100217.71
2022-10-13T09:04:20.064Z,100218.71
2022-10-13T09:05:18.066Z,100222.19
2022-10-13T09:06:16.063Z,100222.65
2022-10-13T09:07:21.653Z,100227.08
2022-10-13T09:08:19.065Z,100231.34
2022-10-13T09:09:11.066Z,100231.14
2022-10-13T09:10:11.061Z,100233.70
2022-10-13T09:11:11.063Z,100237.09
2022-10-13T09:12:12.065Z,100235.88
2022-10-13T09:13:11.059Z,100238.59
2022-10-13T09:14:11.066Z,100237.88
2022-10-13T09:15:11.064Z,100242.93
2022-10-13T09:16:11.063Z,100244.00
2022-10-13T09:17:19.072Z,100250.21
2022-10-13T09:18:11.074Z,100246.14
2022-10-13T09:19:21.066Z,100249.95
2022-10-13T09:20:19.060Z,100249.18
2022-10-13T09:21:19.059Z,100257.60
2022-10-13T09:22:19.425Z,100259.17
2022-10-13T09:23:19.069Z,100262.15
2022-10-13T09:24:17.056Z,100259.34
2022-10-13T09:25:18.054Z,100256.57
2022-10-13T09:26:15.059Z,100259.32
2022-10-13T09:27:17.068Z,100258.98
2022-10-13T09:28:20.107Z,100254.21
2022-10-13T09:29:19.057Z,100251.50
2022-10-13T09:30:19.068Z,100247.81
2022-10-13T09:31:15.061Z,100247.16
2022-10-13T09:32:19.433Z,100249.52
2022-10-13T09:33:16.060Z,100245.04
2022-10-13T09:34:19.060Z,100245.18
2022-10-13T09:35:19.068Z,100247.62
2022-10-13T09:36:13.067Z,100247.54
2022-10-13T09:37:18.060Z,100251.68
2022-10-13T09:38:19.056Z,100250.48
2022-10-13T09:39:14.060Z,100255.00
2022-10-13T09:40:19.073Z,100254.93
2022-10-13T09:41:16.083Z,100255.22
2022-10-13T09:42:19.139Z,100257.06
2022-10-13T09:43:19.103Z,100260.93
2022-10-13T09:44:19.083Z,100260.29
2022-10-13T09:45:16.097Z,100261.26
2022-10-13T09:46:18.065Z,100262.45
2022-10-13T09:47:19.079Z,100262.84
2022-10-13T09:48:19.070Z,100262.84
2022-10-13T09:49:19.063Z,100259.26
2022-10-13T09:50:19.063Z,100261.08
2022-10-13T09:51:21.060Z,100256.66
2022-10-13T09:52:16.071Z,100258.71
2022-10-13T09:53:21.064Z,100258.78
2022-10-13T09:54:19.069Z,100255.84
2022-10-13T09:55:19.064Z,100256.59
2022-10-13T09:56:20.060Z,100253.37
2022-10-13T09:57:19.062Z,100255.59
2022-10-13T09:58:20.063Z,100255.14
2022-10-13T09:59:19.071Z,100252.14
2022-10-13T10:00:21.063Z,100254.78
2022-10-13T10:01:17.062Z,100255.23
2022-10-13T10:02:22.522Z,100254.03
2022-10-13T10:03:19.061Z,100253.37
2022-10-13T10:04:17.112Z,100258.00
2022-10-13T10:05:18.064Z,100254.49
2022-10-13T10:06:14.063Z,100255.71
2022-10-13T10:07:17.330Z,100251.24
2022-10-13T10:08:28.781Z,100252.66
2022-10-13T10:09:21.872Z,100248.66
2022-10-13T10:10:19.063Z,100251.12
2022-10-13T10:11:15.062Z,100250.04
2022-10-13T10:12:15.064Z,100246.58
2022-10-13T10:13:12.071Z,100247.85
2022-10-13T10:14:19.063Z,100245.80
2022-10-13T10:15:21.061Z,100248.29
2022-10-13T10:16:19.066Z,100244.76
2022-10-13T10:17:21.397Z,100240.08
2022-10-13T10:18:16.069Z,100242.68
2022-10-13T10:19:21.064Z,100239.53
2022-10-13T10:20:19.065Z,100240.55
2022-10-13T10:21:19.059Z,100238.99
2022-10-13T10:22:19.060Z,100236.85
2022-10-13T10:23:19.058Z,100239.19
2022-10-13T10:24:19.060Z,100240.41
2022-10-13T10:25:19.057Z,100237.80
2022-10-13T10:26:22.218Z,100235.84
2022-10-13T10:28:23.104Z,100230.35
2022-10-13T10:29:17.062Z,100230.65
2022-10-13T10:30:15.057Z,100228.05
2022-10-13T10:31:19.066Z,100228.56
2022-10-13T10:32:19.322Z,100228.78
2022-10-13T10:33:16.068Z,100228.14
2022-10-13T10:34:19.061Z,100220.01
2022-10-13T10:35:20.116Z,100223.10
2022-10-13T10:36:19.064Z,100220.07
2022-10-13T10:37:21.176Z,100220.61
2022-10-13T10:38:21.070Z,100222.23
2022-10-13T10:39:21.063Z,100225.04
2022-10-13T10:40:19.069Z,100222.74
2022-10-13T10:41:19.060Z,100223.73
2022-10-13T10:42:19.390Z,100219.81
2022-10-13T10:43:19.061Z,100220.89
2022-10-13T10:44:20.068Z,100219.63
2022-10-13T10:45:16.072Z,100217.89
2022-10-13T10:46:21.061Z,100216.13
2022-10-13T10:47:22.527Z,100216.04
2022-10-13T10:48:19.067Z,100221.50
2022-10-13T10:49:18.067Z,100220.77
2022-10-13T10:50:14.070Z,100216.72
2022-10-13T10:51:11.062Z,100219.79
2022-10-13T10:52:16.061Z,100219.98
2022-10-13T10:53:19.065Z,100219.67
2022-10-13T10:54:19.063Z,100218.67
2022-10-13T10:55:21.061Z,100225.62
2022-10-13T10:56:19.062Z,100226.49
2022-10-13T10:57:18.327Z,100233.03
2022-10-13T10:58:21.071Z,100231.49
2022-10-13T10:59:21.066Z,100232.52
2022-10-13T11:00:17.117Z,100230.74
2022-10-13T11:01:21.112Z,100226.91
2022-10-13T11:02:19.426Z,100228.70
2022-10-13T11:03:19.065Z,100231.50
2022-10-13T11:04:19.066Z,100233.47
2022-10-13T11:05:11.066Z,100233.39
2022-10-13T11:06:21.060Z,100237.30
2022-10-13T11:07:18.066Z,100234.74
2022-10-13T11:08:19.075Z,100236.00
2022-10-13T11:09:12.071Z,100235.59
2022-10-13T11:10:18.079Z,100236.11
2022-10-13T11:11:23.345Z,100230.76
2022-10-13T11:12:25.302Z,100230.72
2022-10-13T11:13:17.071Z,100224.99
2022-10-13T11:14:19.068Z,100225.20
2022-10-13T11:15:15.065Z,100219.97
2022-10-13T11:16:19.068Z,100216.92
2022-10-13T11:17:17.073Z,100214.59
2022-10-13T11:18:21.946Z,100211.50
2022-10-13T11:19:21.064Z,100210.80
2022-10-13T11:20:21.071Z,100210.51
2022-10-13T11:21:11.059Z,100211.40
2022-10-13T11:22:14.061Z,100211.31
2022-10-13T11:23:19.061Z,100215.36
2022-10-13T11:24:19.057Z,100210.27
2022-10-13T11:25:19.058Z,100210.36